createdAt,value
2016-09-29T00:00:22.899Z,22.59
2016-09-29T00:01:33.183Z,22.6
2016-09-29T00:02:43.471Z,22.51
2016-09-29T00:03:53.764Z,22.64
2016-09-29T00:05:04.072Z,22.61
2016-09-29T00:06:14.359Z,22.69
2016-09-29T00:07:24.337Z,22.67
2016-09-29T00:08:34.622Z,22.67
2016-09-29T00:09:44.910Z,22.66
2016-09-29T00:10:55.197Z,22.66
2016-09-29T00:12:05.488Z,22.75
2016-09-29T00:13:15.774Z,22.73
2016-09-29T00:14:25.747Z,22.81
2016-09-29T00:15:35.750Z,22.76
2016-09-29T00:16:46.030Z,22.76
2016-09-29T00:17:56.331Z,22.76
2016-09-29T00:19:06.014Z,22.84
2016-09-29T00:20:16.304Z,22.84
2016-09-29T00:21:26.591Z,22.88
2016-09-29T00:22:36.872Z,22.91
2016-09-29T00:23:46.850Z,22.88
2016-09-29T00:24:57.127Z,22.89
2016-09-29T00:26:07.438Z,22.89
2016-09-29T00:27:17.735Z,22.86
2016-09-29T00:28:27.706Z,22.82
2016-09-29T00:29:37.688Z,22.84
2016-09-29T00:30:47.359Z,22.85
2016-09-29T00:31:57.341Z,22.86
2016-09-29T00:33:07.638Z,22.86
2016-09-29T00:34:17.922Z,22.89
2016-09-29T00:35:27.916Z,22.86
2016-09-29T00:36:37.914Z,22.96
2016-09-29T00:37:48.215Z,22.91
2016-09-29T00:38:58.539Z,22.86
2016-09-29T00:40:08.524Z,23
2016-09-29T00:41:18.819Z,22.91
2016-09-29T00:42:29.111Z,22.88
2016-09-29T00:43:39.423Z,22.92
2016-09-29T00:44:49.404Z,22.91
2016-09-29T00:45:59.696Z,22.91
2016-09-29T00:47:10.011Z,22.92
2016-09-29T00:48:20.287Z,22.86
2016-09-29T00:49:30.577Z,22.88
2016-09-29T00:50:40.559Z,22.89
2016-09-29T00:51:50.545Z,22.89
2016-09-29T00:53:00.528Z,22.89
2016-09-29T00:54:10.856Z,22.89
2016-09-29T00:55:21.150Z,22.91
2016-09-29T00:56:31.132Z,22.89
2016-09-29T00:57:41.412Z,22.89
2016-09-29T00:58:51.693Z,22.84
2016-09-29T01:00:01.382Z,22.89
2016-09-29T01:01:11.364Z,22.85
2016-09-29T01:02:21.657Z,22.84
2016-09-29T01:03:31.638Z,22.89
2016-09-29T01:04:41.924Z,22.88
2016-09-29T01:05:52.226Z,22.94
2016-09-29T01:07:02.527Z,22.96
2016-09-29T01:08:12.504Z,22.91
2016-09-29T01:09:22.176Z,22.88
2016-09-29T01:10:32.497Z,22.85
2016-09-29T01:11:42.500Z,22.91
2016-09-29T01:12:52.790Z,22.92
2016-09-29T01:14:02.772Z,22.86
2016-09-29T01:15:12.813Z,23
2016-09-29T01:16:23.101Z,22.89
2016-09-29T01:17:33.384Z,22.96
2016-09-29T01:18:43.069Z,22.96
2016-09-29T01:19:52.991Z,22.86
2016-09-29T01:21:03.281Z,22.91
2016-09-29T01:22:13.254Z,22.88
2016-09-29T01:23:23.548Z,22.89
2016-09-29T01:24:33.838Z,22.88
2016-09-29T01:25:44.131Z,22.79
2016-09-29T01:26:54.106Z,22.91
2016-09-29T01:28:04.421Z,22.84
2016-09-29T01:29:14.714Z,22.88
2016-09-29T01:30:25.008Z,22.85
2016-09-29T01:31:35.299Z,22.75
2016-09-29T01:32:45.601Z,22.79
2016-09-29T01:33:55.905Z,22.84
2016-09-29T01:35:05.883Z,22.73
2016-09-29T01:36:16.174Z,22.75
2016-09-29T01:37:26.156Z,22.75
2016-09-29T01:38:36.150Z,22.76
2016-09-29T01:39:46.120Z,22.73
2016-09-29T01:40:56.096Z,22.71
2016-09-29T01:42:06.378Z,22.63
2016-09-29T01:43:16.671Z,22.67
2016-09-29T01:44:26.677Z,22.71
2016-09-29T01:45:36.974Z,22.69
2016-09-29T01:46:47.265Z,22.66
2016-09-29T01:47:57.568Z,22.66
2016-09-29T01:49:07.557Z,22.63
2016-09-29T01:50:17.541Z,22.63
2016-09-29T01:51:27.507Z,22.57
2016-09-29T01:52:37.792Z,22.61
2016-09-29T01:53:47.770Z,22.51
2016-09-29T01:54:57.756Z,22.51
2016-09-29T01:56:08.055Z,22.54
2016-09-29T01:57:18.065Z,22.51
2016-09-29T01:58:28.367Z,22.51
2016-09-29T01:59:38.355Z,22.46
2016-09-29T02:00:48.638Z,22.52
2016-09-29T02:01:59.162Z,22.52
2016-09-29T02:03:09.459Z,22.49
2016-09-29T02:04:19.750Z,22.48
2016-09-29T02:05:30.043Z,22.46
2016-09-29T02:06:40.341Z,22.44
2016-09-29T02:07:50.629Z,22.36
2016-09-29T02:09:00.303Z,22.41
2016-09-29T02:10:10.302Z,22.36
2016-09-29T02:11:20.603Z,22.33
2016-09-29T02:12:30.597Z,22.27
2016-09-29T02:13:40.581Z,22.34
2016-09-29T02:14:50.873Z,22.34
2016-09-29T02:16:01.170Z,22.36
2016-09-29T02:17:11.459Z,22.23
2016-09-29T02:18:21.746Z,22.27
2016-09-29T02:19:32.052Z,22.23
2016-09-29T02:20:42.364Z,22.24
2016-09-29T02:21:52.652Z,22.23
2016-09-29T02:23:02.338Z,22.26
2016-09-29T02:24:12.324Z,22.22
2016-09-29T02:25:22.649Z,22.29
2016-09-29T02:26:32.943Z,22.26
2016-09-29T02:27:42.930Z,22.14
2016-09-29T02:28:53.209Z,22.18
2016-09-29T02:30:03.178Z,22.22
2016-09-29T02:31:13.164Z,22.22
2016-09-29T02:32:23.471Z,22.11
2016-09-29T02:33:33.438Z,22.16
2016-09-29T02:34:43.721Z,22.14
2016-09-29T02:35:53.727Z,22.18
2016-09-29T02:37:04.023Z,22.18
2016-09-29T02:38:14.313Z,22.08
2016-09-29T02:39:24.603Z,22.12
2016-09-29T02:40:34.878Z,22.11
2016-09-29T02:41:45.174Z,22.11
2016-09-29T02:42:55.466Z,21.97
2016-09-29T02:44:05.769Z,21.97
2016-09-29T02:45:15.732Z,22
2016-09-29T02:46:25.719Z,22.07
2016-09-29T02:47:36.005Z,21.99
2016-09-29T02:48:46.023Z,21.96
2016-09-29T02:49:55.998Z,21.94
2016-09-29T02:51:06.287Z,22.02
2016-09-29T02:52:16.571Z,21.9
2016-09-29T02:53:26.857Z,21.89
2016-09-29T02:54:36.524Z,21.85
2016-09-29T02:55:46.823Z,21.85
2016-09-29T02:56:57.121Z,21.8
2016-09-29T02:58:07.425Z,21.77
2016-09-29T02:59:17.405Z,21.8
2016-09-29T03:00:27.697Z,21.85
2016-09-29T03:32:20.779Z,18.76
2016-09-29T03:33:30.447Z,18.81
2016-09-29T03:34:40.716Z,18.75
2016-09-29T03:35:50.988Z,18.79
2016-09-29T03:37:01.270Z,18.87
2016-09-29T03:38:10.659Z,18.91
2016-09-29T03:39:20.934Z,18.99
2016-09-29T03:40:31.235Z,19.1
2016-09-29T03:41:41.212Z,19.2
2016-09-29T03:42:51.199Z,19.46
2016-09-29T03:44:01.480Z,19.53
2016-09-29T03:45:11.468Z,19.68
2016-09-29T03:46:21.765Z,19.78
2016-09-29T03:47:31.740Z,19.98
2016-09-29T03:48:42.026Z,20.07
2016-09-29T03:49:51.994Z,20.11
2016-09-29T03:51:01.977Z,20.2
2016-09-29T03:52:12.277Z,20.23
2016-09-29T03:53:22.558Z,20.29
2016-09-29T03:54:32.856Z,20.42
2016-09-29T03:55:42.835Z,20.56
2016-09-29T03:56:52.818Z,20.61
2016-09-29T03:58:03.105Z,20.66
2016-09-29T03:59:13.397Z,20.71
2016-09-29T04:00:23.389Z,20.72
2016-09-29T04:01:33.686Z,20.85
2016-09-29T04:02:43.668Z,20.9
2016-09-29T04:03:53.960Z,20.97
2016-09-29T04:05:03.937Z,20.88
2016-09-29T04:06:13.923Z,20.93
2016-09-29T04:07:23.601Z,20.91
2016-09-29T04:08:33.906Z,21.01
2016-09-29T04:09:43.889Z,20.98
2016-09-29T04:10:54.188Z,21.03
2016-09-29T04:12:04.518Z,21.13
2016-09-29T04:13:14.823Z,21.06
2016-09-29T04:14:25.110Z,21.03
2016-09-29T04:15:34.791Z,21.01
2016-09-29T04:16:45.092Z,21.08
2016-09-29T04:17:55.402Z,20.98
2016-09-29T04:19:05.686Z,20.98
2016-09-29T04:20:15.979Z,21
2016-09-29T04:21:26.266Z,21.01
2016-09-29T04:22:36.562Z,21.04
2016-09-29T04:23:46.550Z,21.04
2016-09-29T04:24:56.840Z,21.11
2016-09-29T04:26:07.122Z,21.08
2016-09-29T04:27:17.104Z,21.06
2016-09-29T04:28:26.782Z,21.12
2016-09-29T04:29:37.071Z,21.06
2016-09-29T04:30:47.365Z,21.11
2016-09-29T04:31:57.346Z,21.08
2016-09-29T04:33:07.636Z,21.04
2016-09-29T04:34:17.614Z,21.09
2016-09-29T04:35:27.896Z,21.12
2016-09-29T04:36:37.913Z,21.16
2016-09-29T04:37:47.889Z,21.21
2016-09-29T04:38:58.191Z,21.18
2016-09-29T04:40:08.501Z,21.18
2016-09-29T04:41:18.793Z,21.18
2016-09-29T04:42:29.080Z,21.21
2016-09-29T04:43:38.757Z,21.22
2016-09-29T04:44:48.740Z,21.21
2016-09-29T04:45:59.046Z,21.18
2016-09-29T04:47:09.341Z,21.19
2016-09-29T04:48:19.625Z,21.18
2016-09-29T04:49:29.949Z,21.21
2016-09-29T04:50:40.251Z,21.11
2016-09-29T04:51:50.240Z,21.08
2016-09-29T04:53:00.221Z,21.09
2016-09-29T04:54:10.260Z,21.12
2016-09-29T04:55:20.558Z,21.06
2016-09-29T04:56:30.242Z,21.09
2016-09-29T04:57:40.556Z,21.11
2016-09-29T04:58:50.852Z,21.09
2016-09-29T05:00:00.844Z,21.08
2016-09-29T05:01:10.515Z,21
2016-09-29T05:02:20.523Z,21.08
2016-09-29T05:03:30.509Z,21.08
2016-09-29T05:04:40.800Z,21.12
2016-09-29T05:05:51.138Z,21.11
2016-09-29T05:07:01.427Z,21.09
2016-09-29T05:08:11.715Z,21.04
2016-09-29T05:09:21.698Z,21.06
2016-09-29T05:10:31.992Z,21.16
2016-09-29T05:11:42.277Z,21.16
2016-09-29T05:12:52.259Z,21.21
2016-09-29T05:14:02.241Z,21.19
2016-09-29T05:15:12.216Z,21.15
2016-09-29T05:16:22.493Z,21.19
2016-09-29T05:17:32.774Z,21.23
2016-09-29T05:18:42.766Z,21.22
2016-09-29T05:19:53.085Z,21.19
2016-09-29T05:21:03.377Z,21.33
2016-09-29T05:22:13.676Z,21.19
2016-09-29T05:23:23.358Z,21.33
2016-09-29T05:24:33.659Z,21.3
2016-09-29T05:25:43.947Z,21.31
2016-09-29T05:26:54.235Z,21.38
2016-09-29T05:28:04.526Z,21.45
2016-09-29T05:29:14.822Z,21.53
2016-09-29T05:30:25.109Z,21.45
2016-09-29T05:31:35.399Z,21.52
2016-09-29T05:32:45.721Z,21.53
2016-09-29T05:33:56.013Z,21.58
2016-09-29T05:35:06.305Z,21.64
2016-09-29T05:36:16.275Z,21.59
2016-09-29T05:37:26.548Z,21.71
2016-09-29T05:38:36.831Z,21.73
2016-09-29T05:39:46.816Z,21.68
2016-09-29T05:40:56.802Z,21.8
2016-09-29T05:42:07.082Z,21.8
2016-09-29T05:43:17.375Z,21.89
2016-09-29T05:44:27.657Z,21.94
2016-09-29T05:45:37.948Z,22.04
2016-09-29T05:46:48.235Z,22.12
2016-09-29T05:47:58.223Z,22.09
2016-09-29T05:49:07.879Z,22.14
2016-09-29T05:50:17.865Z,22.15
2016-09-29T05:51:27.854Z,22.14
2016-09-29T05:52:37.848Z,22.09
2016-09-29T05:53:47.516Z,22.29
2016-09-29T05:54:57.182Z,22.23
2016-09-29T05:56:07.197Z,22.3
2016-09-29T05:57:17.489Z,22.27
2016-09-29T05:58:27.787Z,22.3
2016-09-29T05:59:38.080Z,22.3
2016-09-29T06:00:48.371Z,22.41
2016-09-29T06:01:58.689Z,22.39
2016-09-29T06:03:08.978Z,22.41
2016-09-29T06:04:18.966Z,22.36
2016-09-29T06:05:28.957Z,22.49
2016-09-29T06:06:39.254Z,22.46
2016-09-29T06:07:49.537Z,22.54
2016-09-29T06:08:59.831Z,22.57
2016-09-29T06:10:09.506Z,22.66
2016-09-29T06:11:19.498Z,22.69
2016-09-29T06:12:29.492Z,22.7
2016-09-29T06:13:39.168Z,22.76
2016-09-29T06:14:49.473Z,22.86
2016-09-29T06:15:59.763Z,22.96
2016-09-29T06:17:10.064Z,22.86
2016-09-29T06:18:19.435Z,22.99
2016-09-29T06:19:29.408Z,22.94
2016-09-29T06:20:39.694Z,23.04
2016-09-29T06:21:49.680Z,22.96
2016-09-29T06:22:59.684Z,23.21
2016-09-29T06:24:09.665Z,23.12
2016-09-29T06:25:19.346Z,23.15
2016-09-29T06:26:29.329Z,23.18
2016-09-29T06:27:39.002Z,23.24
2016-09-29T06:28:48.981Z,23.26
2016-09-29T06:29:58.964Z,23.34
2016-09-29T06:31:08.655Z,23.42
2016-09-29T06:32:18.957Z,23.55
2016-09-29T06:33:29.239Z,23.55
2016-09-29T06:34:39.249Z,23.53
2016-09-29T06:35:49.527Z,23.67
2016-09-29T06:36:59.836Z,23.66
2016-09-29T06:38:09.509Z,23.75
2016-09-29T06:39:19.187Z,23.81
2016-09-29T06:40:29.473Z,23.84
2016-09-29T06:41:39.464Z,23.85
2016-09-29T06:42:49.437Z,23.94
2016-09-29T06:43:59.422Z,23.96
2016-09-29T06:45:09.716Z,24.02
2016-09-29T06:46:19.700Z,24.14
2016-09-29T06:47:29.389Z,24.15
2016-09-29T06:48:39.391Z,24.15
2016-09-29T06:49:49.681Z,24.19
2016-09-29T06:51:00.024Z,24.18
2016-09-29T06:52:10.011Z,24.12
2016-09-29T06:53:19.992Z,24.19
2016-09-29T06:54:29.975Z,24.21
2016-09-29T06:55:40.269Z,24.22
2016-09-29T06:56:50.568Z,24.33
2016-09-29T06:58:00.557Z,24.32
2016-09-29T06:59:10.555Z,24.36
2016-09-29T07:00:20.848Z,24.34
2016-09-29T07:01:30.529Z,24.4
2016-09-29T07:02:40.825Z,24.42
2016-09-29T07:03:50.837Z,24.49
2016-09-29T07:05:01.128Z,24.52
2016-09-29T07:06:11.417Z,24.54
2016-09-29T07:07:21.707Z,24.55
2016-09-29T07:08:32.012Z,24.66
2016-09-29T07:09:42.001Z,24.75
2016-09-29T07:10:52.277Z,24.77
2016-09-29T07:12:01.645Z,24.8
2016-09-29T07:13:11.547Z,24.82
2016-09-29T07:14:21.846Z,24.86
2016-09-29T07:15:31.823Z,24.9
2016-09-29T07:16:42.114Z,25
2016-09-29T07:17:52.414Z,25.05
2016-09-29T07:19:02.429Z,25.11
2016-09-29T07:20:12.408Z,25.17
2016-09-29T07:21:22.097Z,25.24
2016-09-29T07:22:32.080Z,25.3
2016-09-29T07:23:41.764Z,25.38
2016-09-29T07:24:52.041Z,25.41
2016-09-29T07:26:02.344Z,25.51
2016-09-29T07:27:12.334Z,25.56
2016-09-29T07:28:22.023Z,25.56
2016-09-29T07:29:32.334Z,25.71
2016-09-29T07:30:42.627Z,25.82
2016-09-29T07:31:53.036Z,25.91
2016-09-29T07:33:03.340Z,25.84
2016-09-29T07:34:13.315Z,25.94
2016-09-29T07:35:23.289Z,25.97
2016-09-29T07:36:33.580Z,26.11
2016-09-29T07:37:43.566Z,26.17
2016-09-29T07:38:52.931Z,26.15
2016-09-29T07:40:03.220Z,26.26
2016-09-29T07:41:12.612Z,26.34
2016-09-29T07:42:22.600Z,26.32
2016-09-29T07:43:32.571Z,26.41
2016-09-29T07:44:42.858Z,26.31
2016-09-29T07:45:53.149Z,26.35
2016-09-29T07:47:02.521Z,26.27
2016-09-29T07:48:11.901Z,26.27
2016-09-29T07:49:22.200Z,26.34
2016-09-29T07:50:32.181Z,26.31
2016-09-29T07:51:42.481Z,26.38
2016-09-29T07:52:52.464Z,26.42
2016-09-29T07:54:02.768Z,26.42
2016-09-29T07:55:13.063Z,26.42
2016-09-29T07:56:23.055Z,26.61
2016-09-29T07:57:33.341Z,26.59
2016-09-29T07:58:43.338Z,26.64
2016-09-29T07:59:53.634Z,26.59
2016-09-29T08:01:03.942Z,26.68
2016-09-29T08:02:13.932Z,26.68
2016-09-29T08:03:24.220Z,26.64
2016-09-29T08:04:34.512Z,26.71
2016-09-29T08:05:44.833Z,26.75
2016-09-29T08:06:55.137Z,26.76
2016-09-29T08:08:05.115Z,26.72
2016-09-29T08:09:14.791Z,26.76
2016-09-29T08:10:24.781Z,26.81
2016-09-29T08:11:34.757Z,26.81
2016-09-29T08:12:45.079Z,26.78
2016-09-29T08:13:55.077Z,26.86
2016-09-29T08:15:04.453Z,26.97
2016-09-29T08:16:14.143Z,26.96
2016-09-29T08:17:24.435Z,26.91
2016-09-29T08:18:34.738Z,26.97
2016-09-29T08:19:44.729Z,27
2016-09-29T08:20:55.034Z,27.11
2016-09-29T08:22:05.048Z,27.13
2016-09-29T08:23:15.357Z,27.11
2016-09-29T08:24:24.735Z,27.21
2016-09-29T08:25:35.038Z,27.24
2016-09-29T08:26:45.015Z,27.23
2016-09-29T08:27:55.307Z,27.34
2016-09-29T08:29:04.991Z,27.41
2016-09-29T08:30:14.985Z,27.34
2016-09-29T08:31:24.972Z,27.49
2016-09-29T08:32:34.663Z,27.52
2016-09-29T08:33:44.038Z,27.62
2016-09-29T08:34:54.333Z,27.66
2016-09-29T08:36:04.314Z,27.69
2016-09-29T08:37:14.635Z,27.71
2016-09-29T08:38:24.618Z,27.83
2016-09-29T08:39:34.917Z,27.86
2016-09-29T08:40:44.915Z,27.91
2016-09-29T08:41:55.227Z,27.87
2016-09-29T08:43:04.912Z,27.91
2016-09-29T08:44:14.895Z,27.87
2016-09-29T08:45:24.874Z,27.96
2016-09-29T08:46:35.180Z,27.96
2016-09-29T08:47:45.482Z,28.03
2016-09-29T08:48:55.769Z,27.98
2016-09-29T08:50:06.082Z,27.91
2016-09-29T08:51:16.415Z,27.96
2016-09-29T08:52:26.394Z,28.01
2016-09-29T08:53:36.377Z,27.93
2016-09-29T08:54:46.669Z,27.91
2016-09-29T08:55:56.359Z,27.93
2016-09-29T08:57:06.362Z,27.98
2016-09-29T08:58:16.054Z,28.03
2016-09-29T08:59:26.059Z,27.99
2016-09-29T09:00:35.730Z,28.12
2016-09-29T09:01:45.108Z,28.17
2016-09-29T09:02:55.408Z,28.2
2016-09-29T09:04:05.406Z,28.27
2016-09-29T09:05:15.074Z,28.3
2016-09-29T09:06:24.760Z,28.46
2016-09-29T09:07:35.053Z,28.53
2016-09-29T09:08:44.427Z,28.53
2016-09-29T09:09:54.100Z,28.48
2016-09-29T09:11:04.102Z,28.49
2016-09-29T09:12:13.808Z,28.49
2016-09-29T09:13:24.130Z,28.61
2016-09-29T09:14:34.440Z,28.53
2016-09-29T09:15:44.432Z,28.48
2016-09-29T09:16:54.424Z,28.54
2016-09-29T09:18:04.397Z,28.6
2016-09-29T09:19:14.683Z,28.67
2016-09-29T09:20:24.694Z,28.67
2016-09-29T09:21:34.986Z,28.82
2016-09-29T09:22:44.674Z,28.82
2016-09-29T09:23:54.355Z,28.9
2016-09-29T09:25:04.347Z,28.92
2016-09-29T09:26:14.320Z,29.05
2016-09-29T09:27:24.314Z,29.18
2016-09-29T09:28:33.991Z,29.2
2016-09-29T09:29:43.659Z,29.28
2016-09-29T09:30:53.341Z,29.32
2016-09-29T09:32:03.032Z,29.43
2016-09-29T09:33:13.032Z,29.38
2016-09-29T09:34:23.336Z,29.39
2016-09-29T09:35:33.327Z,29.47
2016-09-29T09:36:43.000Z,29.42
2016-09-29T09:37:52.985Z,29.54
2016-09-29T09:39:02.964Z,29.42
2016-09-29T09:40:12.634Z,29.51
2016-09-29T09:41:22.625Z,29.5
2016-09-29T09:42:32.928Z,29.54
2016-09-29T09:43:42.909Z,29.55
2016-09-29T09:44:52.890Z,29.48
2016-09-29T09:46:02.594Z,29.55
2016-09-29T09:47:12.591Z,29.54
2016-09-29T09:48:22.890Z,29.55
2016-09-29T09:49:32.564Z,29.6
2016-09-29T09:50:42.549Z,29.55
2016-09-29T09:51:52.870Z,29.52
2016-09-29T09:53:03.171Z,29.52
2016-09-29T09:54:13.460Z,29.51
2016-09-29T09:55:23.142Z,29.57
2016-09-29T09:56:33.452Z,29.63
2016-09-29T09:57:43.755Z,29.61
2016-09-29T09:58:53.441Z,29.61
2016-09-29T10:00:03.428Z,29.69
2016-09-29T10:01:13.434Z,29.58
2016-09-29T10:02:23.117Z,29.58
2016-09-29T10:03:33.413Z,29.81
2016-09-29T10:04:43.701Z,29.89
2016-09-29T10:05:53.378Z,29.95
2016-09-29T10:07:03.386Z,30.1
2016-09-29T10:08:13.677Z,30.16
2016-09-29T10:09:23.368Z,30.21
2016-09-29T10:10:33.669Z,30.22
2016-09-29T10:11:43.965Z,30.28
2016-09-29T10:12:53.952Z,30.37
2016-09-29T10:14:03.943Z,30.37
2016-09-29T10:15:13.626Z,30.4
2016-09-29T10:16:23.310Z,30.39
2016-09-29T10:17:33.592Z,30.26
2016-09-29T10:18:43.265Z,30.25
2016-09-29T10:19:53.591Z,30.25
2016-09-29T10:21:03.592Z,30.19
2016-09-29T10:22:13.910Z,30.19
2016-09-29T10:23:23.936Z,30.18
2016-09-29T10:24:33.929Z,30.31
2016-09-29T10:25:44.215Z,30.4
2016-09-29T10:26:54.206Z,30.39
2016-09-29T10:28:04.524Z,30.4
2016-09-29T10:29:14.830Z,30.29
2016-09-29T10:30:24.825Z,30.51
2016-09-29T10:31:34.813Z,30.29
2016-09-29T10:32:44.811Z,30.32
2016-09-29T10:33:55.120Z,30.35
2016-09-29T10:35:05.124Z,30.29
2016-09-29T10:36:15.114Z,30.25
2016-09-29T10:37:25.417Z,30.24
2016-09-29T10:38:35.409Z,30.21
2016-09-29T10:39:45.391Z,30.26
2016-09-29T10:40:55.681Z,30.28
2016-09-29T10:42:05.994Z,30.25
2016-09-29T10:43:15.986Z,30.25
2016-09-29T10:44:25.978Z,30.29
2016-09-29T10:45:35.974Z,30.31
2016-09-29T10:46:45.642Z,30.22
2016-09-29T10:47:55.639Z,30.25
2016-09-29T10:49:05.639Z,30.26
2016-09-29T10:50:15.637Z,30.28
2016-09-29T10:51:25.318Z,30.44
2016-09-29T10:52:35.304Z,30.54
2016-09-29T10:53:45.310Z,30.67
2016-09-29T10:54:55.612Z,30.67
2016-09-29T10:56:05.899Z,30.81
2016-09-29T10:57:16.186Z,30.84
2016-09-29T10:58:26.193Z,30.89
2016-09-29T10:59:36.423Z,30.89
2016-09-29T11:00:46.716Z,30.97
2016-09-29T11:01:56.714Z,31.07
2016-09-29T11:03:06.704Z,31.1
2016-09-29T11:04:16.925Z,31.13
2016-09-29T11:05:27.226Z,31.23
2016-09-29T11:06:37.228Z,31.15
2016-09-29T11:07:47.216Z,31.34
2016-09-29T11:08:57.544Z,31.31
2016-09-29T11:10:07.253Z,31.43
2016-09-29T11:11:17.271Z,31.37
2016-09-29T11:12:27.582Z,31.41
2016-09-29T11:13:37.894Z,31.5
2016-09-29T11:14:47.881Z,31.5
2016-09-29T11:15:58.187Z,31.59
2016-09-29T11:17:08.503Z,31.59
2016-09-29T11:18:18.488Z,31.56
2016-09-29T11:19:28.481Z,31.6
2016-09-29T11:20:38.800Z,31.67
2016-09-29T11:21:49.091Z,31.63
2016-09-29T11:22:59.418Z,31.65
2016-09-29T11:24:09.398Z,31.68
2016-09-29T11:25:19.371Z,31.56
2016-09-29T11:26:29.697Z,31.56
2016-09-29T11:27:39.395Z,31.47
2016-09-29T11:28:49.381Z,31.65
2016-09-29T11:29:59.372Z,31.68
2016-09-29T11:31:09.678Z,31.65
2016-09-29T11:32:19.977Z,31.71
2016-09-29T11:33:30.270Z,31.75
2016-09-29T11:34:40.254Z,31.7
2016-09-29T11:35:50.243Z,31.88
2016-09-29T11:37:00.234Z,31.72
2016-09-29T11:38:10.246Z,31.78
2016-09-29T11:39:20.565Z,31.78
2016-09-29T11:40:30.241Z,31.72
2016-09-29T11:41:39.935Z,31.81
2016-09-29T11:42:49.942Z,31.82
2016-09-29T11:43:59.927Z,31.87
2016-09-29T11:45:10.216Z,31.8
2016-09-29T11:46:19.897Z,31.82
2016-09-29T11:47:29.277Z,31.82
2016-09-29T11:48:39.826Z,31.9
2016-09-29T11:49:49.814Z,31.94
2016-09-29T11:50:59.804Z,32.05
2016-09-29T11:52:10.110Z,32.09
2016-09-29T11:53:20.102Z,32.06
2016-09-29T11:54:30.105Z,32.12
2016-09-29T11:55:40.105Z,32.13
2016-09-29T11:56:50.088Z,32.24
2016-09-29T11:58:00.091Z,32.19
2016-09-29T11:59:10.386Z,32.28
2016-09-29T12:00:20.687Z,32.39
2016-09-29T12:01:31.012Z,32.37
2016-09-29T12:02:40.685Z,32.39
2016-09-29T12:03:50.667Z,32.35
2016-09-29T12:05:00.981Z,32.37
2016-09-29T12:06:11.297Z,32.38
2016-09-29T12:07:20.978Z,32.34
2016-09-29T12:08:31.496Z,32.37
2016-09-29T12:09:41.797Z,32.52
2016-09-29T12:10:51.787Z,32.5
2016-09-29T12:12:01.496Z,32.59
2016-09-29T12:13:11.806Z,32.59
2016-09-29T12:14:22.111Z,32.61
2016-09-29T12:15:32.128Z,32.69
2016-09-29T12:16:42.437Z,32.65
2016-09-29T12:17:52.748Z,32.67
2016-09-29T12:19:02.760Z,32.71
2016-09-29T12:20:13.070Z,32.76
2016-09-29T12:21:23.060Z,32.72
2016-09-29T12:22:33.369Z,32.87
2016-09-29T12:23:43.676Z,32.8
2016-09-29T12:24:53.384Z,32.87
2016-09-29T12:26:03.369Z,32.84
2016-09-29T12:27:13.676Z,32.93
2016-09-29T12:28:23.356Z,32.91
2016-09-29T12:29:33.352Z,32.86
2016-09-29T12:30:43.356Z,32.64
2016-09-29T12:31:53.034Z,32.42
2016-09-29T12:33:03.026Z,32.34
2016-09-29T12:34:13.323Z,32.19
2016-09-29T12:35:22.702Z,32.15
2016-09-29T12:36:33.024Z,32.09
2016-09-29T12:37:43.319Z,32.19
2016-09-29T12:38:53.312Z,32.16
2016-09-29T12:40:03.608Z,32.16
2016-09-29T12:41:13.296Z,32.19
2016-09-29T12:42:23.312Z,32.42
2016-09-29T12:43:33.605Z,32.38
2016-09-29T12:44:43.943Z,32.38
2016-09-29T12:45:53.945Z,32.53
2016-09-29T12:47:03.946Z,32.62
2016-09-29T12:48:13.618Z,32.69
2016-09-29T12:49:23.629Z,32.76
2016-09-29T12:50:33.610Z,32.86
2016-09-29T12:51:43.616Z,32.91
2016-09-29T12:52:53.992Z,33.03
2016-09-29T12:54:04.293Z,33.11
2016-09-29T12:55:14.621Z,33.12
2016-09-29T12:56:24.933Z,33.2
2016-09-29T12:57:34.929Z,33.28
2016-09-29T12:58:44.965Z,33.37
2016-09-29T12:59:54.962Z,33.43
2016-09-29T13:01:04.957Z,33.5
2016-09-29T13:02:15.267Z,33.5
2016-09-29T13:03:25.283Z,33.53
2016-09-29T13:04:35.594Z,33.63
2016-09-29T13:05:45.915Z,33.71
2016-09-29T13:06:55.299Z,33.71
2016-09-29T13:08:05.617Z,33.78
2016-09-29T13:09:15.823Z,33.74
2016-09-29T13:10:25.530Z,33.78
2016-09-29T13:11:35.530Z,33.97
2016-09-29T13:12:45.524Z,33.96
2016-09-29T13:13:55.594Z,33.85
2016-09-29T13:15:05.593Z,33.8
2016-09-29T13:16:15.292Z,33.73
2016-09-29T13:17:25.616Z,33.74
2016-09-29T13:18:35.909Z,33.62
2016-09-29T13:19:46.215Z,33.63
2016-09-29T13:20:56.518Z,33.62
2016-09-29T13:22:06.810Z,33.61
2016-09-29T13:23:16.831Z,33.69
2016-09-29T13:24:26.861Z,33.69
2016-09-29T13:25:36.561Z,33.65
2016-09-29T13:26:46.580Z,33.68
2016-09-29T13:27:56.583Z,33.63
2016-09-29T13:29:05.963Z,33.75
2016-09-29T13:30:16.280Z,33.85
2016-09-29T13:31:25.959Z,33.8
2016-09-29T13:32:36.278Z,33.69
2016-09-29T13:33:46.579Z,33.62
2016-09-29T13:34:56.581Z,33.47
2016-09-29T13:36:06.589Z,33.21
2016-09-29T13:37:16.890Z,33.12
2016-09-29T13:38:26.893Z,32.91
2016-09-29T13:39:36.890Z,32.86
2016-09-29T13:40:46.270Z,32.87
2016-09-29T13:41:56.262Z,32.87
2016-09-29T13:43:05.952Z,32.9
2016-09-29T13:44:15.967Z,32.69
2016-09-29T13:45:26.268Z,32.64
2016-09-29T13:46:35.648Z,32.46
2016-09-29T13:47:45.951Z,32.38
2016-09-29T13:48:55.634Z,32.5
2016-09-29T13:50:05.945Z,32.61
2016-09-29T13:51:15.942Z,32.68
2016-09-29T13:52:25.956Z,32.74
2016-09-29T13:53:35.672Z,32.86
2016-09-29T13:54:45.671Z,32.86
2016-09-29T13:55:55.378Z,32.86
2016-09-29T13:57:05.380Z,32.87
2016-09-29T13:58:15.682Z,32.9
2016-09-29T13:59:25.702Z,32.89
2016-09-29T14:00:35.695Z,32.91
2016-09-29T14:01:46.020Z,32.86
2016-09-29T14:02:56.002Z,32.91
2016-09-29T14:04:05.674Z,32.83
2016-09-29T14:05:15.966Z,32.8
2016-09-29T14:06:25.958Z,32.69
2016-09-29T14:07:35.670Z,32.61
2016-09-29T14:08:45.657Z,32.59
2016-09-29T14:09:55.342Z,32.64
2016-09-29T14:11:05.640Z,32.83
2016-09-29T14:12:15.646Z,32.91
2016-09-29T14:13:25.630Z,32.98
2016-09-29T14:14:35.639Z,32.96
2016-09-29T14:15:45.632Z,32.93
2016-09-29T14:16:55.024Z,32.9
2016-09-29T14:18:05.324Z,32.91
2016-09-29T14:19:15.637Z,32.71
2016-09-29T14:20:25.926Z,32.49
2016-09-29T14:21:35.945Z,32.49
2016-09-29T14:22:45.617Z,32.38
2016-09-29T14:23:55.933Z,32.35
2016-09-29T14:25:05.630Z,32.37
2016-09-29T14:26:15.636Z,32.38
2016-09-29T14:27:25.629Z,32.38
2016-09-29T14:28:35.941Z,32.35
2016-09-29T14:29:46.248Z,32.35
2016-09-29T14:30:55.638Z,32.23
2016-09-29T14:32:05.942Z,32.13
2016-09-29T14:33:15.934Z,32
2016-09-29T14:34:25.909Z,31.82
2016-09-29T14:35:36.211Z,31.68
2016-09-29T14:36:46.213Z,31.5
2016-09-29T14:37:56.514Z,31.44
2016-09-29T14:39:06.222Z,31.49
2016-09-29T14:40:16.230Z,31.47
2016-09-29T14:41:26.248Z,31.49
2016-09-29T14:42:36.577Z,31.6
2016-09-29T14:43:46.569Z,31.63
2016-09-29T14:44:56.870Z,31.65
2016-09-29T14:46:07.184Z,31.63
2016-09-29T14:47:17.495Z,31.63
2016-09-29T14:48:27.796Z,31.63
2016-09-29T14:49:38.118Z,31.52
2016-09-29T14:50:48.419Z,31.44
2016-09-29T14:51:58.101Z,31.52
2016-09-29T14:53:08.094Z,31.5
2016-09-29T14:54:18.100Z,31.55
2016-09-29T14:55:28.085Z,31.62
2016-09-29T14:56:38.393Z,31.52
2016-09-29T14:57:48.076Z,31.56
2016-09-29T14:58:58.387Z,31.47
2016-09-29T15:00:08.673Z,31.5
2016-09-29T15:01:18.360Z,31.44
2016-09-29T15:02:28.336Z,31.38
2016-09-29T15:03:38.334Z,31.3
2016-09-29T15:04:48.023Z,31.3
2016-09-29T15:05:58.006Z,31.21
2016-09-29T15:07:07.679Z,31.13
2016-09-29T15:08:17.980Z,31.03
2016-09-29T15:09:27.652Z,31.01
2016-09-29T15:10:37.998Z,30.89
2016-09-29T15:11:47.678Z,30.82
2016-09-29T15:12:57.979Z,30.81
2016-09-29T15:14:07.969Z,30.73
2016-09-29T15:15:17.956Z,30.62
2016-09-29T15:16:28.274Z,30.57
2016-09-29T15:17:37.974Z,30.57
2016-09-29T15:18:47.971Z,30.51
2016-09-29T15:19:58.283Z,30.4
2016-09-29T15:21:08.584Z,30.35
2016-09-29T15:22:18.868Z,30.22
2016-09-29T15:23:28.534Z,30.19
2016-09-29T15:24:38.843Z,30.14
2016-09-29T15:25:49.152Z,30.04
2016-09-29T15:26:59.461Z,30.09
2016-09-29T15:28:09.759Z,30.03
2016-09-29T15:29:19.773Z,30.02
2016-09-29T15:30:30.073Z,30.03
2016-09-29T15:31:40.377Z,29.87
2016-09-29T15:32:50.362Z,29.77
2016-09-29T15:34:00.368Z,29.72
2016-09-29T15:35:10.378Z,29.73
2016-09-29T15:36:20.368Z,29.61